sensor_id;sensor_type;location;lat;lon;timestamp;P1;durP1;ratioP1;P2;durP2;ratioP2
81701;SDS011;71115;52.150;4.510;2023-09-12T00:01:33;80.03;;;35.88;;
81701;SDS011;71115;52.150;4.510;2023-09-12T00:03:59;84.63;;;35.00;;
81701;SDS011;71115;52.150;4.510;2023-09-12T00:06:25;85.53;;;33.47;;
81701;SDS011;71115;52.150;4.510;2023-09-12T00:08:51;80.47;;;35.20;;
81701;SDS011;71115;52.150;4.510;2023-09-12T00:11:17;69.78;;;31.73;;
81701;SDS011;71115;52.150;4.510;2023-09-12T00:13:43;76.82;;;33.60;;
81701;SDS011;71115;52.150;4.510;2023-09-12T00:16:10;78.82;;;33.15;;
81701;SDS011;71115;52.150;4.510;2023-09-12T00:18:36;80.15;;;32.58;;
81701;SDS011;71115;52.150;4.510;2023-09-12T00:21:02;73.40;;;32.88;;
81701;SDS011;71115;52.150;4.510;2023-09-12T00:23:28;76.22;;;32.70;;
81701;SDS011;71115;52.150;4.510;2023-09-12T00:25:54;86.72;;;33.58;;
81701;SDS011;71115;52.150;4.510;2023-09-12T00:28:21;77.97;;;32.83;;
81701;SDS011;71115;52.150;4.510;2023-09-12T00:30:47;87.93;;;34.20;;
81701;SDS011;71115;52.150;4.510;2023-09-12T00:33:13;78.47;;;32.88;;
81701;SDS011;71115;52.150;4.510;2023-09-12T00:35:38;96.05;;;36.10;;
81701;SDS011;71115;52.150;4.510;2023-09-12T00:38:04;86.28;;;32.83;;
81701;SDS011;71115;52.150;4.510;2023-09-12T00:40:33;79.93;;;34.00;;
81701;SDS011;71115;52.150;4.510;2023-09-12T00:42:59;78.53;;;32.88;;
81701;SDS011;71115;52.150;4.510;2023-09-12T00:45:25;87.53;;;33.45;;
81701;SDS011;71115;52.150;4.510;2023-09-12T00:47:51;86.45;;;32.88;;
81701;SDS011;71115;52.150;4.510;2023-09-12T00:50:18;92.60;;;35.22;;
81701;SDS011;71115;52.150;4.510;2023-09-12T00:52:45;90.80;;;31.45;;
81701;SDS011;71115;52.150;4.510;2023-09-12T00:55:12;94.47;;;34.78;;
81701;SDS011;71115;52.150;4.510;2023-09-12T00:57:38;93.97;;;34.70;;
81701;SDS011;71115;52.150;4.510;2023-09-12T01:00:05;82.80;;;32.35;;
81701;SDS011;71115;52.150;4.510;2023-09-12T01:02:39;87.75;;;33.03;;
81701;SDS011;71115;52.150;4.510;2023-09-12T01:05:09;90.30;;;33.88;;
81701;SDS011;71115;52.150;4.510;2023-09-12T01:07:35;86.72;;;33.72;;
81701;SDS011;71115;52.150;4.510;2023-09-12T01:10:01;87.95;;;32.22;;
81701;SDS011;71115;52.150;4.510;2023-09-12T01:12:28;96.68;;;34.25;;
81701;SDS011;71115;52.150;4.510;2023-09-12T01:14:55;90.18;;;35.25;;
81701;SDS011;71115;52.150;4.510;2023-09-12T01:17:21;97.68;;;33.78;;
81701;SDS011;71115;52.150;4.510;2023-09-12T01:19:47;87.68;;;33.53;;
81701;SDS011;71115;52.150;4.510;2023-09-12T01:22:29;88.80;;;32.20;;
81701;SDS011;71115;52.150;4.510;2023-09-12T01:25:03;88.50;;;33.03;;
81701;SDS011;71115;52.150;4.510;2023-09-12T01:27:32;76.85;;;32.03;;
81701;SDS011;71115;52.150;4.510;2023-09-12T01:30:04;77.88;;;31.98;;
81701;SDS011;71115;52.150;4.510;2023-09-12T01:32:31;81.80;;;31.67;;
81701;SDS011;71115;52.150;4.510;2023-09-12T01:34:58;90.85;;;33.45;;
81701;SDS011;71115;52.150;4.510;2023-09-12T01:37:24;92.60;;;33.50;;
81701;SDS011;71115;52.150;4.510;2023-09-12T01:39:51;87.15;;;32.33;;
81701;SDS011;71115;52.150;4.510;2023-09-12T01:42:18;97.60;;;34.40;;
81701;SDS011;71115;52.150;4.510;2023-09-12T01:44:46;93.50;;;32.30;;
81701;SDS011;71115;52.150;4.510;2023-09-12T01:47:12;76.47;;;31.75;;
81701;SDS011;71115;52.150;4.510;2023-09-12T01:49:39;86.10;;;31.10;;
81701;SDS011;71115;52.150;4.510;2023-09-12T01:52:07;75.30;;;29.40;;
81701;SDS011;71115;52.150;4.510;2023-09-12T01:54:33;76.05;;;31.02;;
81701;SDS011;71115;52.150;4.510;2023-09-12T01:57:00;91.13;;;33.28;;
81701;SDS011;71115;52.150;4.510;2023-09-12T01:59:28;91.90;;;33.17;;
81701;SDS011;71115;52.150;4.510;2023-09-12T02:01:54;85.90;;;31.42;;
81701;SDS011;71115;52.150;4.510;2023-09-12T02:04:20;77.35;;;31.25;;
81701;SDS011;71115;52.150;4.510;2023-09-12T02:06:46;74.75;;;30.90;;
81701;SDS011;71115;52.150;4.510;2023-09-12T02:09:12;82.80;;;30.33;;
81701;SDS011;71115;52.150;4.510;2023-09-12T02:11:38;73.07;;;28.85;;
81701;SDS011;71115;52.150;4.510;2023-09-12T02:14:04;85.55;;;30.73;;
81701;SDS011;71115;52.150;4.510;2023-09-12T02:16:31;91.40;;;31.35;;
81701;SDS011;71115;52.150;4.510;2023-09-12T02:18:57;85.70;;;31.73;;
81701;SDS011;71115;52.150;4.510;2023-09-12T02:21:23;80.18;;;27.90;;
81701;SDS011;71115;52.150;4.510;2023-09-12T02:23:49;74.30;;;29.10;;
81701;SDS011;71115;52.150;4.510;2023-09-12T02:26:15;65.03;;;29.50;;
81701;SDS011;71115;52.150;4.510;2023-09-12T02:28:41;66.38;;;27.10;;
81701;SDS011;71115;52.150;4.510;2023-09-12T02:31:10;66.82;;;25.90;;
81701;SDS011;71115;52.150;4.510;2023-09-12T02:33:39;61.45;;;24.95;;
81701;SDS011;71115;52.150;4.510;2023-09-12T02:36:05;75.05;;;26.20;;
81701;SDS011;71115;52.150;4.510;2023-09-12T02:38:31;56.72;;;26.20;;
81701;SDS011;71115;52.150;4.510;2023-09-12T02:40:58;58.97;;;25.35;;
81701;SDS011;71115;52.150;4.510;2023-09-12T02:43:24;63.92;;;26.10;;
81701;SDS011;71115;52.150;4.510;2023-09-12T02:45:50;62.42;;;26.20;;
81701;SDS011;71115;52.150;4.510;2023-09-12T02:48:16;62.15;;;25.52;;
81701;SDS011;71115;52.150;4.510;2023-09-12T02:50:42;65.18;;;23.77;;
81701;SDS011;71115;52.150;4.510;2023-09-12T02:53:08;62.88;;;25.40;;
81701;SDS011;71115;52.150;4.510;2023-09-12T02:55:34;60.25;;;23.02;;
81701;SDS011;71115;52.150;4.510;2023-09-12T02:58:05;59.20;;;23.85;;
81701;SDS011;71115;52.150;4.510;2023-09-12T03:00:31;52.55;;;23.50;;
81701;SDS011;71115;52.150;4.510;2023-09-12T03:02:57;56.55;;;24.20;;
81701;SDS011;71115;52.150;4.510;2023-09-12T03:05:23;64.38;;;25.15;;
81701;SDS011;71115;52.150;4.510;2023-09-12T03:07:49;54.53;;;23.83;;
81701;SDS011;71115;52.150;4.510;2023-09-12T03:10:15;56.97;;;23.10;;
81701;SDS011;71115;52.150;4.510;2023-09-12T03:12:41;57.15;;;25.35;;
81701;SDS011;71115;52.150;4.510;2023-09-12T03:15:07;60.50;;;24.98;;
81701;SDS011;71115;52.150;4.510;2023-09-12T03:17:33;58.97;;;25.63;;
81701;SDS011;71115;52.150;4.510;2023-09-12T03:19:59;67.53;;;24.70;;
81701;SDS011;71115;52.150;4.510;2023-09-12T03:22:26;62.28;;;24.52;;
81701;SDS011;71115;52.150;4.510;2023-09-12T03:24:52;62.63;;;23.27;;
81701;SDS011;71115;52.150;4.510;2023-09-12T03:27:18;57.28;;;23.08;;
81701;SDS011;71115;52.150;4.510;2023-09-12T03:29:46;64.95;;;22.70;;
81701;SDS011;71115;52.150;4.510;2023-09-12T03:32:12;56.08;;;22.38;;
81701;SDS011;71115;52.150;4.510;2023-09-12T03:34:38;53.60;;;21.95;;
81701;SDS011;71115;52.150;4.510;2023-09-12T03:37:04;50.13;;;20.05;;
81701;SDS011;71115;52.150;4.510;2023-09-12T03:39:30;59.10;;;23.00;;
81701;SDS011;71115;52.150;4.510;2023-09-12T03:41:56;60.22;;;22.73;;
81701;SDS011;71115;52.150;4.510;2023-09-12T03:44:22;49.00;;;21.05;;
81701;SDS011;71115;52.150;4.510;2023-09-12T03:46:48;52.05;;;20.77;;
81701;SDS011;71115;52.150;4.510;2023-09-12T03:49:14;47.60;;;19.55;;
81701;SDS011;71115;52.150;4.510;2023-09-12T03:51:40;53.30;;;21.70;;
81701;SDS011;71115;52.150;4.510;2023-09-12T03:54:06;44.55;;;20.30;;
81701;SDS011;71115;52.150;4.510;2023-09-12T03:56:32;47.33;;;21.00;;
81701;SDS011;71115;52.150;4.510;2023-09-12T03:58:58;49.22;;;19.27;;
81701;SDS011;71115;52.150;4.510;2023-09-12T04:03:50;47.28;;;19.05;;
81701;SDS011;71115;52.150;4.510;2023-09-12T04:06:16;47.65;;;19.27;;
81701;SDS011;71115;52.150;4.510;2023-09-12T04:08:42;49.17;;;20.08;;
81701;SDS011;71115;52.150;4.510;2023-09-12T04:11:08;56.80;;;20.38;;
81701;SDS011;71115;52.150;4.510;2023-09-12T04:13:36;46.00;;;20.55;;
81701;SDS011;71115;52.150;4.510;2023-09-12T04:16:02;53.42;;;20.73;;
81701;SDS011;71115;52.150;4.510;2023-09-12T04:18:28;58.13;;;21.98;;
81701;SDS011;71115;52.150;4.510;2023-09-12T04:20:54;60.92;;;20.73;;
81701;SDS011;71115;52.150;4.510;2023-09-12T04:23:24;55.20;;;21.67;;
81701;SDS011;71115;52.150;4.510;2023-09-12T04:25:50;56.63;;;20.05;;
81701;SDS011;71115;52.150;4.510;2023-09-12T04:28:16;44.65;;;20.13;;
81701;SDS011;71115;52.150;4.510;2023-09-12T04:30:42;52.72;;;21.55;;
81701;SDS011;71115;52.150;4.510;2023-09-12T04:33:08;56.15;;;20.27;;
81701;SDS011;71115;52.150;4.510;2023-09-12T04:35:34;46.15;;;18.98;;
81701;SDS011;71115;52.150;4.510;2023-09-12T04:40:26;64.72;;;23.30;;
81701;SDS011;71115;52.150;4.510;2023-09-12T04:42:53;59.92;;;21.70;;
81701;SDS011;71115;52.150;4.510;2023-09-12T04:45:19;70.90;;;23.20;;
81701;SDS011;71115;52.150;4.510;2023-09-12T04:47:45;52.65;;;18.70;;
81701;SDS011;71115;52.150;4.510;2023-09-12T04:50:11;58.17;;;19.83;;
81701;SDS011;71115;52.150;4.510;2023-09-12T04:52:37;65.97;;;24.05;;
81701;SDS011;71115;52.150;4.510;2023-09-12T04:55:03;42.47;;;15.55;;
81701;SDS011;71115;52.150;4.510;2023-09-12T04:57:30;62.70;;;20.40;;
81701;SDS011;71115;52.150;4.510;2023-09-12T04:59:56;48.67;;;18.80;;
81701;SDS011;71115;52.150;4.510;2023-09-12T05:02:23;72.07;;;27.05;;
81701;SDS011;71115;52.150;4.510;2023-09-12T05:04:50;81.00;;;27.65;;
81701;SDS011;71115;52.150;4.510;2023-09-12T05:07:16;83.25;;;28.00;;
81701;SDS011;71115;52.150;4.510;2023-09-12T05:09:42;77.95;;;27.77;;
81701;SDS011;71115;52.150;4.510;2023-09-12T05:12:08;73.68;;;25.95;;
81701;SDS011;71115;52.150;4.510;2023-09-12T05:14:34;75.25;;;28.20;;
81701;SDS011;71115;52.150;4.510;2023-09-12T05:17:00;74.57;;;28.67;;
81701;SDS011;71115;52.150;4.510;2023-09-12T05:21:52;54.50;;;23.70;;
81701;SDS011;71115;52.150;4.510;2023-09-12T05:24:18;69.78;;;25.67;;
81701;SDS011;71115;52.150;4.510;2023-09-12T05:26:44;59.50;;;24.15;;
81701;SDS011;71115;52.150;4.510;2023-09-12T05:29:12;65.10;;;25.20;;
81701;SDS011;71115;52.150;4.510;2023-09-12T05:31:38;61.47;;;24.85;;
81701;SDS011;71115;52.150;4.510;2023-09-12T05:34:04;73.60;;;26.02;;
81701;SDS011;71115;52.150;4.510;2023-09-12T05:36:30;80.95;;;28.35;;
81701;SDS011;71115;52.150;4.510;2023-09-12T05:38:57;68.05;;;26.30;;
81701;SDS011;71115;52.150;4.510;2023-09-12T05:41:23;72.88;;;25.50;;
81701;SDS011;71115;52.150;4.510;2023-09-12T05:43:49;65.03;;;24.05;;
81701;SDS011;71115;52.150;4.510;2023-09-12T05:46:15;68.40;;;25.85;;
81701;SDS011;71115;52.150;4.510;2023-09-12T05:48:41;67.25;;;24.83;;
81701;SDS011;71115;52.150;4.510;2023-09-12T05:51:07;69.88;;;24.77;;
81701;SDS011;71115;52.150;4.510;2023-09-12T05:53:33;62.50;;;25.05;;
81701;SDS011;71115;52.150;4.510;2023-09-12T05:55:59;67.97;;;24.48;;
81701;SDS011;71115;52.150;4.510;2023-09-12T05:58:25;66.05;;;24.65;;
81701;SDS011;71115;52.150;4.510;2023-09-12T06:00:51;69.35;;;25.45;;
81701;SDS011;71115;52.150;4.510;2023-09-12T06:03:17;80.85;;;26.05;;
81701;SDS011;71115;52.150;4.510;2023-09-12T06:05:43;69.30;;;23.60;;
81701;SDS011;71115;52.150;4.510;2023-09-12T06:08:09;81.18;;;26.10;;
81701;SDS011;71115;52.150;4.510;2023-09-12T06:10:35;74.32;;;26.00;;
81701;SDS011;71115;52.150;4.510;2023-09-12T06:13:02;72.90;;;27.27;;
81701;SDS011;71115;52.150;4.510;2023-09-12T06:15:28;84.57;;;25.85;;
81701;SDS011;71115;52.150;4.510;2023-09-12T06:17:54;90.88;;;28.50;;
81701;SDS011;71115;52.150;4.510;2023-09-12T06:20:20;78.25;;;26.55;;
81701;SDS011;71115;52.150;4.510;2023-09-12T06:22:47;76.10;;;24.83;;
81701;SDS011;71115;52.150;4.510;2023-09-12T06:25:14;75.50;;;24.95;;
81701;SDS011;71115;52.150;4.510;2023-09-12T06:27:40;75.38;;;25.92;;
81701;SDS011;71115;52.150;4.510;2023-09-12T06:30:06;68.97;;;25.55;;
81701;SDS011;71115;52.150;4.510;2023-09-12T06:34:58;65.70;;;23.42;;
81701;SDS011;71115;52.150;4.510;2023-09-12T06:37:24;59.03;;;23.55;;
81701;SDS011;71115;52.150;4.510;2023-09-12T06:39:50;65.82;;;25.98;;
81701;SDS011;71115;52.150;4.510;2023-09-12T06:42:16;59.40;;;25.00;;
81701;SDS011;71115;52.150;4.510;2023-09-12T06:44:42;58.00;;;22.65;;
81701;SDS011;71115;52.150;4.510;2023-09-12T06:47:08;59.60;;;26.17;;
81701;SDS011;71115;52.150;4.510;2023-09-12T06:49:35;65.95;;;24.90;;
81701;SDS011;71115;52.150;4.510;2023-09-12T06:52:02;57.05;;;23.50;;
81701;SDS011;71115;52.150;4.510;2023-09-12T06:54:28;74.93;;;26.05;;
81701;SDS011;71115;52.150;4.510;2023-09-12T06:56:55;58.65;;;24.75;;
81701;SDS011;71115;52.150;4.510;2023-09-12T06:59:21;63.88;;;22.95;;
81701;SDS011;71115;52.150;4.510;2023-09-12T07:01:47;59.45;;;22.52;;
81701;SDS011;71115;52.150;4.510;2023-09-12T07:04:13;51.92;;;22.10;;
81701;SDS011;71115;52.150;4.510;2023-09-12T07:06:39;61.50;;;25.02;;
81701;SDS011;71115;52.150;4.510;2023-09-12T07:09:05;57.90;;;22.85;;
81701;SDS011;71115;52.150;4.510;2023-09-12T07:11:31;68.15;;;24.80;;
81701;SDS011;71115;52.150;4.510;2023-09-12T07:13:57;62.72;;;24.42;;
81701;SDS011;71115;52.150;4.510;2023-09-12T07:16:23;61.10;;;24.40;;
81701;SDS011;71115;52.150;4.510;2023-09-12T07:18:49;67.07;;;24.08;;
81701;SDS011;71115;52.150;4.510;2023-09-12T07:21:15;64.38;;;24.40;;
81701;SDS011;71115;52.150;4.510;2023-09-12T07:23:41;58.55;;;23.33;;
81701;SDS011;71115;52.150;4.510;2023-09-12T07:26:11;50.75;;;22.77;;
81701;SDS011;71115;52.150;4.510;2023-09-12T07:28:38;60.10;;;23.30;;
81701;SDS011;71115;52.150;4.510;2023-09-12T07:31:04;51.55;;;23.30;;
81701;SDS011;71115;52.150;4.510;2023-09-12T07:33:30;50.85;;;22.27;;
81701;SDS011;71115;52.150;4.510;2023-09-12T07:35:56;43.30;;;22.10;;
81701;SDS011;71115;52.150;4.510;2023-09-12T07:38:22;52.22;;;21.17;;
81701;SDS011;71115;52.150;4.510;2023-09-12T07:40:48;47.75;;;21.33;;
81701;SDS011;71115;52.150;4.510;2023-09-12T07:43:14;42.45;;;19.92;;
81701;SDS011;71115;52.150;4.510;2023-09-12T07:45:40;43.95;;;20.60;;
81701;SDS011;71115;52.150;4.510;2023-09-12T07:48:07;43.72;;;18.95;;
81701;SDS011;71115;52.150;4.510;2023-09-12T07:50:34;40.90;;;20.02;;
81701;SDS011;71115;52.150;4.510;2023-09-12T07:53:00;43.78;;;20.58;;
81701;SDS011;71115;52.150;4.510;2023-09-12T07:55:26;46.45;;;23.15;;
81701;SDS011;71115;52.150;4.510;2023-09-12T07:57:55;42.80;;;22.30;;
81701;SDS011;71115;52.150;4.510;2023-09-12T08:00:22;47.15;;;21.80;;
81701;SDS011;71115;52.150;4.510;2023-09-12T08:02:48;48.78;;;23.88;;
81701;SDS011;71115;52.150;4.510;2023-09-12T08:05:15;41.25;;;20.70;;
81701;SDS011;71115;52.150;4.510;2023-09-12T08:10:07;35.88;;;20.08;;
81701;SDS011;71115;52.150;4.510;2023-09-12T08:12:33;35.22;;;19.88;;
81701;SDS011;71115;52.150;4.510;2023-09-12T08:15:03;33.85;;;18.33;;
81701;SDS011;71115;52.150;4.510;2023-09-12T08:17:29;31.27;;;17.00;;
81701;SDS011;71115;52.150;4.510;2023-09-12T08:19:55;32.08;;;18.23;;
81701;SDS011;71115;52.150;4.510;2023-09-12T08:22:21;34.67;;;16.80;;
81701;SDS011;71115;52.150;4.510;2023-09-12T08:24:47;28.40;;;16.38;;
81701;SDS011;71115;52.150;4.510;2023-09-12T08:27:13;30.63;;;17.55;;
81701;SDS011;71115;52.150;4.510;2023-09-12T08:29:39;30.60;;;16.60;;
81701;SDS011;71115;52.150;4.510;2023-09-12T08:32:07;29.85;;;17.02;;
81701;SDS011;71115;52.150;4.510;2023-09-12T08:34:33;30.83;;;18.13;;
81701;SDS011;71115;52.150;4.510;2023-09-12T08:36:59;32.83;;;18.42;;
81701;SDS011;71115;52.150;4.510;2023-09-12T08:39:26;26.75;;;16.52;;
81701;SDS011;71115;52.150;4.510;2023-09-12T08:41:52;33.08;;;16.38;;
81701;SDS011;71115;52.150;4.510;2023-09-12T08:44:19;23.52;;;14.35;;
81701;SDS011;71115;52.150;4.510;2023-09-12T08:46:45;28.73;;;15.35;;
81701;SDS011;71115;52.150;4.510;2023-09-12T08:49:12;30.10;;;14.48;;
81701;SDS011;71115;52.150;4.510;2023-09-12T08:51:38;24.95;;;14.80;;
81701;SDS011;71115;52.150;4.510;2023-09-12T08:54:04;26.98;;;15.82;;
81701;SDS011;71115;52.150;4.510;2023-09-12T08:56:31;25.98;;;14.32;;
81701;SDS011;71115;52.150;4.510;2023-09-12T08:58:58;24.08;;;14.18;;
81701;SDS011;71115;52.150;4.510;2023-09-12T09:01:25;22.23;;;13.40;;
81701;SDS011;71115;52.150;4.510;2023-09-12T09:03:54;21.73;;;13.07;;
81701;SDS011;71115;52.150;4.510;2023-09-12T09:08:46;22.25;;;11.63;;
81701;SDS011;71115;52.150;4.510;2023-09-12T09:11:13;22.40;;;12.35;;
81701;SDS011;71115;52.150;4.510;2023-09-12T09:16:14;20.85;;;12.93;;
81701;SDS011;71115;52.150;4.510;2023-09-12T09:19:00;16.90;;;10.15;;
81701;SDS011;71115;52.150;4.510;2023-09-12T09:21:27;18.10;;;10.52;;
81701;SDS011;71115;52.150;4.510;2023-09-12T09:23:55;16.40;;;9.23;;
81701;SDS011;71115;52.150;4.510;2023-09-12T09:26:21;13.98;;;8.18;;
81701;SDS011;71115;52.150;4.510;2023-09-12T09:29:05;20.45;;;9.80;;
81701;SDS011;71115;52.150;4.510;2023-09-12T09:31:31;14.80;;;7.88;;
81701;SDS011;71115;52.150;4.510;2023-09-12T09:33:58;18.05;;;8.63;;
81701;SDS011;71115;52.150;4.510;2023-09-12T09:36:25;13.35;;;9.00;;
81701;SDS011;71115;52.150;4.510;2023-09-12T09:38:51;17.85;;;9.73;;
81701;SDS011;71115;52.150;4.510;2023-09-12T09:41:20;14.65;;;8.57;;
81701;SDS011;71115;52.150;4.510;2023-09-12T09:43:49;14.10;;;8.23;;
81701;SDS011;71115;52.150;4.510;2023-09-12T09:46:15;14.10;;;9.20;;
81701;SDS011;71115;52.150;4.510;2023-09-12T09:48:42;20.92;;;9.07;;
81701;SDS011;71115;52.150;4.510;2023-09-12T09:51:13;13.98;;;9.52;;
81701;SDS011;71115;52.150;4.510;2023-09-12T09:53:40;15.10;;;7.85;;
81701;SDS011;71115;52.150;4.510;2023-09-12T09:56:13;16.50;;;8.70;;
81701;SDS011;71115;52.150;4.510;2023-09-12T10:01:05;13.60;;;8.82;;
81701;SDS011;71115;52.150;4.510;2023-09-12T10:03:32;15.68;;;8.23;;
81701;SDS011;71115;52.150;4.510;2023-09-12T10:06:01;15.00;;;9.55;;
81701;SDS011;71115;52.150;4.510;2023-09-12T10:08:29;16.25;;;8.95;;
81701;SDS011;71115;52.150;4.510;2023-09-12T10:10:56;14.25;;;8.63;;
81701;SDS011;71115;52.150;4.510;2023-09-12T10:15:51;15.40;;;9.07;;
81701;SDS011;71115;52.150;4.510;2023-09-12T10:18:18;13.20;;;8.30;;
81701;SDS011;71115;52.150;4.510;2023-09-12T10:20:45;14.73;;;8.48;;
81701;SDS011;71115;52.150;4.510;2023-09-12T10:23:19;16.35;;;8.05;;
81701;SDS011;71115;52.150;4.510;2023-09-12T10:25:46;16.55;;;9.55;;
81701;SDS011;71115;52.150;4.510;2023-09-12T10:28:14;13.63;;;8.20;;
81701;SDS011;71115;52.150;4.510;2023-09-12T10:30:40;20.95;;;8.43;;
81701;SDS011;71115;52.150;4.510;2023-09-12T10:33:07;12.52;;;8.57;;
81701;SDS011;71115;52.150;4.510;2023-09-12T10:35:33;13.75;;;8.20;;
81701;SDS011;71115;52.150;4.510;2023-09-12T10:38:00;14.43;;;6.50;;
81701;SDS011;71115;52.150;4.510;2023-09-12T10:40:29;8.68;;;4.72;;
81701;SDS011;71115;52.150;4.510;2023-09-12T10:42:55;10.23;;;5.75;;
81701;SDS011;71115;52.150;4.510;2023-09-12T10:45:22;7.60;;;4.30;;
81701;SDS011;71115;52.150;4.510;2023-09-12T10:50:14;13.05;;;5.40;;
81701;SDS011;71115;52.150;4.510;2023-09-12T10:52:40;12.63;;;5.53;;
81701;SDS011;71115;52.150;4.510;2023-09-12T10:57:32;11.82;;;5.43;;
81701;SDS011;71115;52.150;4.510;2023-09-12T11:05:00;13.45;;;5.80;;
81701;SDS011;71115;52.150;4.510;2023-09-12T11:12:44;13.95;;;4.65;;
81701;SDS011;71115;52.150;4.510;2023-09-12T11:15:10;14.27;;;5.22;;
81701;SDS011;71115;52.150;4.510;2023-09-12T11:17:37;12.48;;;5.07;;
81701;SDS011;71115;52.150;4.510;2023-09-12T11:20:03;11.40;;;5.97;;
81701;SDS011;71115;52.150;4.510;2023-09-12T11:22:35;14.65;;;6.63;;
81701;SDS011;71115;52.150;4.510;2023-09-12T11:25:02;11.57;;;5.60;;
81701;SDS011;71115;52.150;4.510;2023-09-12T11:27:32;14.07;;;6.43;;
81701;SDS011;71115;52.150;4.510;2023-09-12T11:30:05;10.60;;;4.85;;
81701;SDS011;71115;52.150;4.510;2023-09-12T11:32:32;17.27;;;6.00;;
81701;SDS011;71115;52.150;4.510;2023-09-12T11:34:59;11.43;;;5.72;;
81701;SDS011;71115;52.150;4.510;2023-09-12T11:37:26;16.65;;;6.00;;
81701;SDS011;71115;52.150;4.510;2023-09-12T11:39:53;12.40;;;5.35;;
81701;SDS011;71115;52.150;4.510;2023-09-12T11:42:19;16.92;;;6.45;;
81701;SDS011;71115;52.150;4.510;2023-09-12T11:44:50;15.00;;;5.38;;
81701;SDS011;71115;52.150;4.510;2023-09-12T11:47:16;9.20;;;4.00;;
81701;SDS011;71115;52.150;4.510;2023-09-12T11:52:09;12.27;;;4.00;;
81701;SDS011;71115;52.150;4.510;2023-09-12T11:54:35;9.05;;;4.40;;
81701;SDS011;71115;52.150;4.510;2023-09-12T11:57:02;13.13;;;5.00;;
81701;SDS011;71115;52.150;4.510;2023-09-12T12:01:54;10.57;;;4.65;;
81701;SDS011;71115;52.150;4.510;2023-09-12T12:04:21;10.55;;;4.20;;
81701;SDS011;71115;52.150;4.510;2023-09-12T12:06:48;10.90;;;4.00;;
81701;SDS011;71115;52.150;4.510;2023-09-12T12:09:14;7.13;;;3.92;;
81701;SDS011;71115;52.150;4.510;2023-09-12T12:11:43;10.88;;;4.40;;
81701;SDS011;71115;52.150;4.510;2023-09-12T12:14:18;11.35;;;5.05;;
81701;SDS011;71115;52.150;4.510;2023-09-12T12:16:45;8.73;;;4.18;;
81701;SDS011;71115;52.150;4.510;2023-09-12T12:19:11;10.82;;;3.88;;
81701;SDS011;71115;52.150;4.510;2023-09-12T12:21:41;11.95;;;5.53;;
81701;SDS011;71115;52.150;4.510;2023-09-12T12:24:11;9.82;;;5.00;;
81701;SDS011;71115;52.150;4.510;2023-09-12T12:26:40;8.93;;;4.72;;
81701;SDS011;71115;52.150;4.510;2023-09-12T12:29:06;7.13;;;4.15;;
81701;SDS011;71115;52.150;4.510;2023-09-12T12:31:32;12.13;;;4.57;;
81701;SDS011;71115;52.150;4.510;2023-09-12T12:33:58;5.82;;;3.45;;
81701;SDS011;71115;52.150;4.510;2023-09-12T12:36:24;4.65;;;2.80;;
81701;SDS011;71115;52.150;4.510;2023-09-12T12:38:52;5.65;;;2.67;;
81701;SDS011;71115;52.150;4.510;2023-09-12T12:41:22;5.00;;;2.78;;
81701;SDS011;71115;52.150;4.510;2023-09-12T12:43:49;4.85;;;2.83;;
81701;SDS011;71115;52.150;4.510;2023-09-12T12:46:18;7.35;;;2.90;;
81701;SDS011;71115;52.150;4.510;2023-09-12T12:48:46;6.57;;;3.00;;
81701;SDS011;71115;52.150;4.510;2023-09-12T12:51:19;7.40;;;3.03;;
81701;SDS011;71115;52.150;4.510;2023-09-12T12:53:48;6.55;;;3.47;;
81701;SDS011;71115;52.150;4.510;2023-09-12T12:56:16;7.55;;;4.07;;
81701;SDS011;71115;52.150;4.510;2023-09-12T12:58:47;5.97;;;2.78;;
81701;SDS011;71115;52.150;4.510;2023-09-12T13:01:13;6.13;;;3.30;;
81701;SDS011;71115;52.150;4.510;2023-09-12T13:03:40;11.77;;;3.55;;
81701;SDS011;71115;52.150;4.510;2023-09-12T13:06:06;7.72;;;3.30;;
81701;SDS011;71115;52.150;4.510;2023-09-12T13:08:38;12.10;;;3.20;;
81701;SDS011;71115;52.150;4.510;2023-09-12T13:11:04;6.85;;;3.95;;
81701;SDS011;71115;52.150;4.510;2023-09-12T13:13:30;8.38;;;3.47;;
81701;SDS011;71115;52.150;4.510;2023-09-12T13:15:56;8.00;;;3.53;;
81701;SDS011;71115;52.150;4.510;2023-09-12T13:18:22;11.38;;;4.22;;
81701;SDS011;71115;52.150;4.510;2023-09-12T13:20:48;8.85;;;3.90;;
81701;SDS011;71115;52.150;4.510;2023-09-12T13:23:14;8.63;;;4.03;;
81701;SDS011;71115;52.150;4.510;2023-09-12T13:25:40;8.20;;;4.68;;
81701;SDS011;71115;52.150;4.510;2023-09-12T13:28:06;8.98;;;4.07;;
81701;SDS011;71115;52.150;4.510;2023-09-12T13:30:33;8.88;;;4.00;;
81701;SDS011;71115;52.150;4.510;2023-09-12T13:32:59;7.18;;;3.75;;
81701;SDS011;71115;52.150;4.510;2023-09-12T13:35:25;10.85;;;4.40;;
81701;SDS011;71115;52.150;4.510;2023-09-12T13:37:51;11.30;;;4.45;;
81701;SDS011;71115;52.150;4.510;2023-09-12T13:40:17;9.48;;;4.70;;
81701;SDS011;71115;52.150;4.510;2023-09-12T13:42:43;11.85;;;5.38;;
81701;SDS011;71115;52.150;4.510;2023-09-12T13:45:09;16.75;;;5.05;;
81701;SDS011;71115;52.150;4.510;2023-09-12T13:47:35;10.90;;;4.53;;
81701;SDS011;71115;52.150;4.510;2023-09-12T13:50:02;15.48;;;5.68;;
81701;SDS011;71115;52.150;4.510;2023-09-12T13:54:55;9.25;;;5.35;;
81701;SDS011;71115;52.150;4.510;2023-09-12T13:57:21;6.78;;;3.60;;
81701;SDS011;71115;52.150;4.510;2023-09-12T13:59:47;9.77;;;4.07;;
81701;SDS011;71115;52.150;4.510;2023-09-12T14:02:13;6.13;;;3.63;;
81701;SDS011;71115;52.150;4.510;2023-09-12T14:04:39;10.02;;;4.30;;
81701;SDS011;71115;52.150;4.510;2023-09-12T14:07:06;10.45;;;3.83;;
81701;SDS011;71115;52.150;4.510;2023-09-12T14:09:32;7.90;;;3.88;;
81701;SDS011;71115;52.150;4.510;2023-09-12T14:11:58;6.55;;;3.47;;
81701;SDS011;71115;52.150;4.510;2023-09-12T14:14:24;11.45;;;3.78;;
81701;SDS011;71115;52.150;4.510;2023-09-12T14:16:50;7.95;;;3.88;;
81701;SDS011;71115;52.150;4.510;2023-09-12T14:21:42;7.65;;;2.90;;
81701;SDS011;71115;52.150;4.510;2023-09-12T14:24:11;11.00;;;3.63;;
81701;SDS011;71115;52.150;4.510;2023-09-12T14:26:37;10.55;;;4.43;;
81701;SDS011;71115;52.150;4.510;2023-09-12T14:31:29;6.85;;;3.30;;
81701;SDS011;71115;52.150;4.510;2023-09-12T14:33:55;10.45;;;3.90;;
81701;SDS011;71115;52.150;4.510;2023-09-12T14:36:22;8.68;;;3.40;;
81701;SDS011;71115;52.150;4.510;2023-09-12T14:38:48;9.30;;;3.20;;
81701;SDS011;71115;52.150;4.510;2023-09-12T14:41:14;7.32;;;3.53;;
81701;SDS011;71115;52.150;4.510;2023-09-12T14:43:40;7.80;;;3.08;;
81701;SDS011;71115;52.150;4.510;2023-09-12T14:46:06;7.07;;;2.97;;
81701;SDS011;71115;52.150;4.510;2023-09-12T14:48:33;11.00;;;5.57;;
81701;SDS011;71115;52.150;4.510;2023-09-12T14:51:01;12.77;;;5.78;;
81701;SDS011;71115;52.150;4.510;2023-09-12T14:55:53;13.23;;;5.57;;
81701;SDS011;71115;52.150;4.510;2023-09-12T15:00:45;10.10;;;5.20;;
81701;SDS011;71115;52.150;4.510;2023-09-12T15:03:11;13.40;;;6.50;;
81701;SDS011;71115;52.150;4.510;2023-09-12T15:05:37;9.13;;;5.65;;
81701;SDS011;71115;52.150;4.510;2023-09-12T15:08:03;10.73;;;6.15;;
81701;SDS011;71115;52.150;4.510;2023-09-12T15:10:31;11.45;;;5.90;;
81701;SDS011;71115;52.150;4.510;2023-09-12T15:12:57;9.77;;;5.38;;
81701;SDS011;71115;52.150;4.510;2023-09-12T15:15:23;9.48;;;4.50;;
81701;SDS011;71115;52.150;4.510;2023-09-12T15:17:49;4.53;;;2.45;;
81701;SDS011;71115;52.150;4.510;2023-09-12T15:20:15;8.07;;;3.97;;